Alvaton, Kentucky
Current Conditions -  °F | °C
As of 10:53 AM on Friday 21 Nov 2014 (Local Time) from KBWG Reporting Station
Clear Clear  
Wind Chill: 35°   Ceiling: Unl
Heat Index: 41°   Visibility: 10mi
Dew Point: 18°   Wind: 9mph
Humidity: 40%   Direction: 60°ENE
Pressure: 30.49"   Gusts: NA
Location:  36.87°N, 86.35°W
Report Text: KBWG 211653Z AUTO 06008KT 10SM CLR 05/M08 A3049 RMK AO2 SLP328 T00501078
Loading
Personal Weather Stations






























Interactive Weather Map New forecast layout! Learn more

10-Day Weather Forecast

Advertisements
Track Severe Weather on mobile